sensor_id;sensor_type;location;lat;lon;timestamp;temperature;humidity
6930;DHT22;3504;52.616;13.238;2022-07-21T00:04:29;24.82;47.01
6930;DHT22;3504;52.616;13.238;2022-07-21T00:09:31;24.76;48.29
6930;DHT22;3504;52.616;13.238;2022-07-21T00:14:32;24.67;47.73
6930;DHT22;3504;52.616;13.238;2022-07-21T00:19:33;24.64;47.29
6930;DHT22;3504;52.616;13.238;2022-07-21T00:24:34;24.61;47.67
6930;DHT22;3504;52.616;13.238;2022-07-21T00:29:36;24.57;47.11
6930;DHT22;3504;52.616;13.238;2022-07-21T00:34:36;24.54;46.73
6930;DHT22;3504;52.616;13.238;2022-07-21T00:39:38;24.52;47.81
6930;DHT22;3504;52.616;13.238;2022-07-21T00:44:38;24.48;47.32
6930;DHT22;3504;52.616;13.238;2022-07-21T00:49:39;24.43;47.50
6930;DHT22;3504;52.616;13.238;2022-07-21T00:54:41;24.39;48.01
6930;DHT22;3504;52.616;13.238;2022-07-21T00:59:44;24.34;48.04
6930;DHT22;3504;52.616;13.238;2022-07-21T01:04:45;24.28;48.01
6930;DHT22;3504;52.616;13.238;2022-07-21T01:09:46;24.22;48.28
6930;DHT22;3504;52.616;13.238;2022-07-21T01:14:47;24.17;48.45
6930;DHT22;3504;52.616;13.238;2022-07-21T01:19:49;24.10;48.01
6930;DHT22;3504;52.616;13.238;2022-07-21T01:24:50;24.07;48.69
6930;DHT22;3504;52.616;13.238;2022-07-21T01:29:53;24.07;48.68
6930;DHT22;3504;52.616;13.238;2022-07-21T01:34:53;24.06;48.98
6930;DHT22;3504;52.616;13.238;2022-07-21T01:39:55;24.04;48.83
6930;DHT22;3504;52.616;13.238;2022-07-21T01:45:14;24.09;48.46
6930;DHT22;3504;52.616;13.238;2022-07-21T01:50:15;24.10;48.15
6930;DHT22;3504;52.616;13.238;2022-07-21T01:55:16;24.17;47.85
6930;DHT22;3504;52.616;13.238;2022-07-21T02:00:18;24.17;48.72
6930;DHT22;3504;52.616;13.238;2022-07-21T02:05:18;24.11;47.97
6930;DHT22;3504;52.616;13.238;2022-07-21T02:10:20;24.14;47.97
6930;DHT22;3504;52.616;13.238;2022-07-21T02:15:21;24.11;47.59
6930;DHT22;3504;52.616;13.238;2022-07-21T02:20:22;24.06;47.99
6930;DHT22;3504;52.616;13.238;2022-07-21T02:25:23;23.99;48.33
6930;DHT22;3504;52.616;13.238;2022-07-21T02:30:25;23.96;48.62
6930;DHT22;3504;52.616;13.238;2022-07-21T02:35:25;23.93;48.56
6930;DHT22;3504;52.616;13.238;2022-07-21T02:40:27;23.89;48.63
6930;DHT22;3504;52.616;13.238;2022-07-21T02:45:28;23.90;48.71
6930;DHT22;3504;52.616;13.238;2022-07-21T02:50:33;23.96;48.64
6930;DHT22;3504;52.616;13.238;2022-07-21T02:55:35;24.07;47.94
6930;DHT22;3504;52.616;13.238;2022-07-21T03:00:41;24.18;47.90
6930;DHT22;3504;52.616;13.238;2022-07-21T03:05:42;24.27;47.55
6930;DHT22;3504;52.616;13.238;2022-07-21T03:10:44;24.33;47.63
6930;DHT22;3504;52.616;13.238;2022-07-21T03:15:44;24.33;47.29
6930;DHT22;3504;52.616;13.238;2022-07-21T03:20:47;24.40;47.43
6930;DHT22;3504;52.616;13.238;2022-07-21T03:25:47;24.39;47.23
6930;DHT22;3504;52.616;13.238;2022-07-21T03:30:49;24.41;47.13
6930;DHT22;3504;52.616;13.238;2022-07-21T03:35:50;24.40;47.48
6930;DHT22;3504;52.616;13.238;2022-07-21T03:40:52;24.39;47.97
6930;DHT22;3504;52.616;13.238;2022-07-21T03:45:52;24.40;48.06
6930;DHT22;3504;52.616;13.238;2022-07-21T03:50:54;24.40;47.87
6930;DHT22;3504;52.616;13.238;2022-07-21T03:55:54;24.44;47.60
6930;DHT22;3504;52.616;13.238;2022-07-21T04:00:56;24.45;47.43
6930;DHT22;3504;52.616;13.238;2022-07-21T04:05:56;24.44;47.52
6930;DHT22;3504;52.616;13.238;2022-07-21T04:10:58;24.47;48.03
6930;DHT22;3504;52.616;13.238;2022-07-21T04:15:59;24.44;48.03
6930;DHT22;3504;52.616;13.238;2022-07-21T04:21:00;24.44;47.84
6930;DHT22;3504;52.616;13.238;2022-07-21T04:26:01;24.43;48.38
6930;DHT22;3504;52.616;13.238;2022-07-21T04:31:03;24.37;48.04
6930;DHT22;3504;52.616;13.238;2022-07-21T04:36:03;24.40;48.36
6930;DHT22;3504;52.616;13.238;2022-07-21T04:41:06;24.37;49.01
6930;DHT22;3504;52.616;13.238;2022-07-21T04:46:06;24.36;49.41
6930;DHT22;3504;52.616;13.238;2022-07-21T04:51:09;24.28;50.27
6930;DHT22;3504;52.616;13.238;2022-07-21T04:56:09;24.10;51.35
6930;DHT22;3504;52.616;13.238;2022-07-21T05:01:11;24.11;52.02
6930;DHT22;3504;52.616;13.238;2022-07-21T05:06:12;24.16;52.41
6930;DHT22;3504;52.616;13.238;2022-07-21T05:11:14;24.03;53.08
6930;DHT22;3504;52.616;13.238;2022-07-21T05:16:14;24.03;54.29
6930;DHT22;3504;52.616;13.238;2022-07-21T05:21:16;23.89;54.80
6930;DHT22;3504;52.616;13.238;2022-07-21T05:26:16;24.03;55.13
6930;DHT22;3504;52.616;13.238;2022-07-21T05:31:18;24.13;55.80
6930;DHT22;3504;52.616;13.238;2022-07-21T05:36:19;24.25;55.73
6930;DHT22;3504;52.616;13.238;2022-07-21T05:41:21;24.50;56.47
6930;DHT22;3504;52.616;13.238;2022-07-21T05:46:21;24.72;55.83
6930;DHT22;3504;52.616;13.238;2022-07-21T05:51:23;24.88;55.80
6930;DHT22;3504;52.616;13.238;2022-07-21T05:56:23;25.06;55.23
6930;DHT22;3504;52.616;13.238;2022-07-21T06:01:25;25.24;54.87
6930;DHT22;3504;52.616;13.238;2022-07-21T06:06:26;25.39;54.02
6930;DHT22;3504;52.616;13.238;2022-07-21T06:11:28;25.63;53.74
6930;DHT22;3504;52.616;13.238;2022-07-21T06:16:28;25.93;52.59
6930;DHT22;3504;52.616;13.238;2022-07-21T06:21:30;26.35;51.73
6930;DHT22;3504;52.616;13.238;2022-07-21T06:26:30;26.51;51.58
6930;DHT22;3504;52.616;13.238;2022-07-21T06:31:33;26.57;51.33
6930;DHT22;3504;52.616;13.238;2022-07-21T06:36:34;26.35;51.11
6930;DHT22;3504;52.616;13.238;2022-07-21T06:41:35;26.49;51.12
6930;DHT22;3504;52.616;13.238;2022-07-21T06:46:42;26.67;51.00
6930;DHT22;3504;52.616;13.238;2022-07-21T06:51:44;26.89;49.71
6930;DHT22;3504;52.616;13.238;2022-07-21T06:56:45;26.90;49.43
6930;DHT22;3504;52.616;13.238;2022-07-21T07:01:47;27.24;49.56
6930;DHT22;3504;52.616;13.238;2022-07-21T07:06:47;27.33;48.72
6930;DHT22;3504;52.616;13.238;2022-07-21T07:11:53;27.57;48.75
6930;DHT22;3504;52.616;13.238;2022-07-21T07:16:56;27.71;47.60
6930;DHT22;3504;52.616;13.238;2022-07-21T07:21:58;27.71;47.88
6930;DHT22;3504;52.616;13.238;2022-07-21T07:26:58;28.04;47.90
6930;DHT22;3504;52.616;13.238;2022-07-21T07:32:01;28.04;47.71
6930;DHT22;3504;52.616;13.238;2022-07-21T07:37:02;28.28;47.91
6930;DHT22;3504;52.616;13.238;2022-07-21T07:42:04;28.30;46.30
6930;DHT22;3504;52.616;13.238;2022-07-21T07:47:05;28.25;47.04
6930;DHT22;3504;52.616;13.238;2022-07-21T07:52:07;28.33;46.63
6930;DHT22;3504;52.616;13.238;2022-07-21T07:57:07;28.57;46.39
6930;DHT22;3504;52.616;13.238;2022-07-21T08:02:09;28.81;46.35
6930;DHT22;3504;52.616;13.238;2022-07-21T08:07:11;28.98;46.21
6930;DHT22;3504;52.616;13.238;2022-07-21T08:12:13;28.69;46.39
6930;DHT22;3504;52.616;13.238;2022-07-21T08:17:13;28.33;46.35
6930;DHT22;3504;52.616;13.238;2022-07-21T08:22:15;28.28;47.06
6930;DHT22;3504;52.616;13.238;2022-07-21T08:27:16;28.63;46.99
6930;DHT22;3504;52.616;13.238;2022-07-21T08:32:17;28.67;46.44
6930;DHT22;3504;52.616;13.238;2022-07-21T08:37:21;28.50;46.48
6930;DHT22;3504;52.616;13.238;2022-07-21T08:42:23;28.43;46.91
6930;DHT22;3504;52.616;13.238;2022-07-21T08:47:27;28.64;46.38
6930;DHT22;3504;52.616;13.238;2022-07-21T08:52:28;28.87;46.01
6930;DHT22;3504;52.616;13.238;2022-07-21T08:57:29;29.16;45.79
6930;DHT22;3504;52.616;13.238;2022-07-21T09:02:33;29.70;44.98
6930;DHT22;3504;52.616;13.238;2022-07-21T09:07:54;30.06;43.07
6930;DHT22;3504;52.616;13.238;2022-07-21T09:13:02;29.72;43.62
6930;DHT22;3504;52.616;13.238;2022-07-21T09:18:14;29.99;43.70
6930;DHT22;3504;52.616;13.238;2022-07-21T09:23:21;30.30;42.85
6930;DHT22;3504;52.616;13.238;2022-07-21T09:28:27;30.72;41.48
6930;DHT22;3504;52.616;13.238;2022-07-21T09:33:45;31.30;41.04
6930;DHT22;3504;52.616;13.238;2022-07-21T09:38:54;31.47;40.13
6930;DHT22;3504;52.616;13.238;2022-07-21T09:43:59;31.56;38.67
6930;DHT22;3504;52.616;13.238;2022-07-21T09:49:01;31.87;38.05
6930;DHT22;3504;52.616;13.238;2022-07-21T09:54:13;31.49;38.43
6930;DHT22;3504;52.616;13.238;2022-07-21T09:59:13;31.02;39.70
6930;DHT22;3504;52.616;13.238;2022-07-21T10:04:15;30.58;41.73
6930;DHT22;3504;52.616;13.238;2022-07-21T10:09:20;30.44;40.49
6930;DHT22;3504;52.616;13.238;2022-07-21T10:14:22;30.20;40.75
6930;DHT22;3504;52.616;13.238;2022-07-21T10:24:44;29.65;40.80
6930;DHT22;3504;52.616;13.238;2022-07-21T10:29:55;29.21;42.03
6930;DHT22;3504;52.616;13.238;2022-07-21T10:35:01;28.94;42.49
6930;DHT22;3504;52.616;13.238;2022-07-21T10:40:03;28.77;43.98
6930;DHT22;3504;52.616;13.238;2022-07-21T10:45:35;28.90;43.29
6930;DHT22;3504;52.616;13.238;2022-07-21T10:50:41;28.98;42.67
6930;DHT22;3504;52.616;13.238;2022-07-21T10:55:52;28.95;42.71
6930;DHT22;3504;52.616;13.238;2022-07-21T11:01:19;29.11;43.28
6930;DHT22;3504;52.616;13.238;2022-07-21T11:06:24;30.07;40.03
6930;DHT22;3504;52.616;13.238;2022-07-21T11:11:27;30.18;40.53
6930;DHT22;3504;52.616;13.238;2022-07-21T11:22:08;30.43;40.65
6930;DHT22;3504;52.616;13.238;2022-07-21T11:27:17;30.48;40.69
6930;DHT22;3504;52.616;13.238;2022-07-21T11:32:17;30.74;40.81
6930;DHT22;3504;52.616;13.238;2022-07-21T11:37:43;30.62;40.95
6930;DHT22;3504;52.616;13.238;2022-07-21T11:42:46;30.58;39.97
6930;DHT22;3504;52.616;13.238;2022-07-21T11:47:51;30.23;39.82
6930;DHT22;3504;52.616;13.238;2022-07-21T11:52:52;29.96;41.41
6930;DHT22;3504;52.616;13.238;2022-07-21T11:57:54;29.70;41.48
6930;DHT22;3504;52.616;13.238;2022-07-21T12:03:05;29.41;41.94
6930;DHT22;3504;52.616;13.238;2022-07-21T12:08:07;29.45;42.90
6930;DHT22;3504;52.616;13.238;2022-07-21T12:13:08;29.34;41.48
6930;DHT22;3504;52.616;13.238;2022-07-21T12:18:22;29.29;42.64
6930;DHT22;3504;52.616;13.238;2022-07-21T12:23:30;29.14;42.41
6930;DHT22;3504;52.616;13.238;2022-07-21T12:29:01;28.76;43.85
6930;DHT22;3504;52.616;13.238;2022-07-21T12:34:14;28.35;46.59
6930;DHT22;3504;52.616;13.238;2022-07-21T12:39:23;28.02;50.18
6930;DHT22;3504;52.616;13.238;2022-07-21T12:44:42;27.61;51.48
6930;DHT22;3504;52.616;13.238;2022-07-21T12:50:05;27.26;57.20
6930;DHT22;3504;52.616;13.238;2022-07-21T12:55:07;27.00;60.00
6930;DHT22;3504;52.616;13.238;2022-07-21T13:00:09;26.82;61.28
6930;DHT22;3504;52.616;13.238;2022-07-21T13:05:10;26.73;58.99
6930;DHT22;3504;52.616;13.238;2022-07-21T13:10:13;26.62;62.36
6930;DHT22;3504;52.616;13.238;2022-07-21T13:15:14;26.56;61.08
6930;DHT22;3504;52.616;13.238;2022-07-21T13:20:17;26.65;60.56
6930;DHT22;3504;52.616;13.238;2022-07-21T13:25:17;26.57;59.67
6930;DHT22;3504;52.616;13.238;2022-07-21T13:30:19;26.31;59.63
6930;DHT22;3504;52.616;13.238;2022-07-21T13:35:19;26.21;60.62
6930;DHT22;3504;52.616;13.238;2022-07-21T13:40:22;26.11;59.41
6930;DHT22;3504;52.616;13.238;2022-07-21T13:45:23;25.98;60.40
6930;DHT22;3504;52.616;13.238;2022-07-21T13:50:25;25.91;60.47
6930;DHT22;3504;52.616;13.238;2022-07-21T13:55:25;26.25;61.59
6930;DHT22;3504;52.616;13.238;2022-07-21T14:00:27;26.45;60.53
6930;DHT22;3504;52.616;13.238;2022-07-21T14:05:28;26.93;58.71
6930;DHT22;3504;52.616;13.238;2022-07-21T14:10:29;27.16;58.52
6930;DHT22;3504;52.616;13.238;2022-07-21T14:15:30;26.99;58.96
6930;DHT22;3504;52.616;13.238;2022-07-21T14:20:31;26.89;57.87
6930;DHT22;3504;52.616;13.238;2022-07-21T14:25:32;27.16;57.78
6930;DHT22;3504;52.616;13.238;2022-07-21T14:30:34;27.59;56.23
6930;DHT22;3504;52.616;13.238;2022-07-21T14:35:34;27.62;54.69
6930;DHT22;3504;52.616;13.238;2022-07-21T14:40:37;27.37;54.83
6930;DHT22;3504;52.616;13.238;2022-07-21T14:45:38;27.27;54.52
6930;DHT22;3504;52.616;13.238;2022-07-21T14:50:39;27.43;53.90
6930;DHT22;3504;52.616;13.238;2022-07-21T14:55:39;27.41;54.68
6930;DHT22;3504;52.616;13.238;2022-07-21T15:00:41;27.38;53.77
6930;DHT22;3504;52.616;13.238;2022-07-21T15:05:42;27.35;55.05
6930;DHT22;3504;52.616;13.238;2022-07-21T15:10:44;27.34;54.32
6930;DHT22;3504;52.616;13.238;2022-07-21T15:15:44;27.17;54.48
6930;DHT22;3504;52.616;13.238;2022-07-21T15:20:46;27.08;55.09
6930;DHT22;3504;52.616;13.238;2022-07-21T15:25:46;27.11;54.19
6930;DHT22;3504;52.616;13.238;2022-07-21T15:30:48;27.20;55.97
6930;DHT22;3504;52.616;13.238;2022-07-21T15:35:49;27.38;54.54
6930;DHT22;3504;52.616;13.238;2022-07-21T15:40:55;27.57;54.79
6930;DHT22;3504;52.616;13.238;2022-07-21T15:45:56;27.78;55.10
6930;DHT22;3504;52.616;13.238;2022-07-21T15:50:58;27.62;54.96
6930;DHT22;3504;52.616;13.238;2022-07-21T15:55:58;27.50;55.33
6930;DHT22;3504;52.616;13.238;2022-07-21T16:01:00;27.45;54.69
6930;DHT22;3504;52.616;13.238;2022-07-21T16:06:01;27.47;54.46
6930;DHT22;3504;52.616;13.238;2022-07-21T16:11:02;27.45;55.98
6930;DHT22;3504;52.616;13.238;2022-07-21T16:16:03;27.64;55.21
6930;DHT22;3504;52.616;13.238;2022-07-21T16:21:04;27.67;54.53
6930;DHT22;3504;52.616;13.238;2022-07-21T16:26:05;27.77;54.64
6930;DHT22;3504;52.616;13.238;2022-07-21T16:31:07;27.98;53.73
6930;DHT22;3504;52.616;13.238;2022-07-21T16:36:07;27.95;54.17
6930;DHT22;3504;52.616;13.238;2022-07-21T16:41:09;28.06;53.62
6930;DHT22;3504;52.616;13.238;2022-07-21T16:46:09;27.96;53.59
6930;DHT22;3504;52.616;13.238;2022-07-21T16:51:11;27.82;53.96
6930;DHT22;3504;52.616;13.238;2022-07-21T16:56:12;27.47;54.72
6930;DHT22;3504;52.616;13.238;2022-07-21T17:01:14;27.23;55.54
6930;DHT22;3504;52.616;13.238;2022-07-21T17:06:14;27.00;56.97
6930;DHT22;3504;52.616;13.238;2022-07-21T17:11:16;26.83;57.02
6930;DHT22;3504;52.616;13.238;2022-07-21T17:16:16;26.66;58.15
6930;DHT22;3504;52.616;13.238;2022-07-21T17:21:18;26.48;58.61
6930;DHT22;3504;52.616;13.238;2022-07-21T17:26:18;26.26;61.61
6930;DHT22;3504;52.616;13.238;2022-07-21T17:31:20;26.05;65.05
6930;DHT22;3504;52.616;13.238;2022-07-21T17:36:21;25.85;66.12
6930;DHT22;3504;52.616;13.238;2022-07-21T17:41:23;25.54;67.77
6930;DHT22;3504;52.616;13.238;2022-07-21T17:46:23;25.34;68.11
6930;DHT22;3504;52.616;13.238;2022-07-21T17:51:25;25.19;68.29
6930;DHT22;3504;52.616;13.238;2022-07-21T17:56:26;25.02;69.25
6930;DHT22;3504;52.616;13.238;2022-07-21T18:01:27;24.89;68.82
6930;DHT22;3504;52.616;13.238;2022-07-21T18:06:28;24.82;68.12
6930;DHT22;3504;52.616;13.238;2022-07-21T18:11:30;24.71;69.01
6930;DHT22;3504;52.616;13.238;2022-07-21T18:16:32;24.58;70.05
6930;DHT22;3504;52.616;13.238;2022-07-21T18:21:34;24.50;69.70
6930;DHT22;3504;52.616;13.238;2022-07-21T18:26:34;24.34;72.20
6930;DHT22;3504;52.616;13.238;2022-07-21T18:31:36;24.16;72.61
6930;DHT22;3504;52.616;13.238;2022-07-21T18:36:37;24.09;72.60
6930;DHT22;3504;52.616;13.238;2022-07-21T18:41:38;23.92;73.44
6930;DHT22;3504;52.616;13.238;2022-07-21T18:46:39;23.78;74.04
6930;DHT22;3504;52.616;13.238;2022-07-21T18:51:40;23.52;74.53
6930;DHT22;3504;52.616;13.238;2022-07-21T18:56:41;23.41;74.08
6930;DHT22;3504;52.616;13.238;2022-07-21T19:01:43;23.31;74.51
6930;DHT22;3504;52.616;13.238;2022-07-21T19:06:44;23.15;74.38
6930;DHT22;3504;52.616;13.238;2022-07-21T19:11:45;22.95;75.19
6930;DHT22;3504;52.616;13.238;2022-07-21T19:16:46;22.88;74.96
6930;DHT22;3504;52.616;13.238;2022-07-21T19:21:47;22.83;75.94
6930;DHT22;3504;52.616;13.238;2022-07-21T19:26:49;22.81;75.22
6930;DHT22;3504;52.616;13.238;2022-07-21T19:31:51;22.83;74.90
6930;DHT22;3504;52.616;13.238;2022-07-21T19:36:53;22.84;74.51
6930;DHT22;3504;52.616;13.238;2022-07-21T19:41:55;22.81;74.77
6930;DHT22;3504;52.616;13.238;2022-07-21T19:46:56;22.73;75.95
6930;DHT22;3504;52.616;13.238;2022-07-21T19:51:58;22.64;76.32
6930;DHT22;3504;52.616;13.238;2022-07-21T19:56:58;22.60;76.53
6930;DHT22;3504;52.616;13.238;2022-07-21T20:02:00;22.46;76.74
6930;DHT22;3504;52.616;13.238;2022-07-21T20:07:00;22.33;77.32
6930;DHT22;3504;52.616;13.238;2022-07-21T20:12:02;22.29;76.96
6930;DHT22;3504;52.616;13.238;2022-07-21T20:17:03;22.26;77.06
6930;DHT22;3504;52.616;13.238;2022-07-21T20:22:05;22.22;76.32
6930;DHT22;3504;52.616;13.238;2022-07-21T20:27:05;22.20;75.81
6930;DHT22;3504;52.616;13.238;2022-07-21T20:32:07;22.17;76.33
6930;DHT22;3504;52.616;13.238;2022-07-21T20:37:08;22.06;76.39
6930;DHT22;3504;52.616;13.238;2022-07-21T20:42:10;22.02;77.60
6930;DHT22;3504;52.616;13.238;2022-07-21T20:47:10;21.96;77.00
6930;DHT22;3504;52.616;13.238;2022-07-21T20:52:14;21.89;77.23
6930;DHT22;3504;52.616;13.238;2022-07-21T20:57:15;21.88;76.88
6930;DHT22;3504;52.616;13.238;2022-07-21T21:02:20;21.83;77.51
6930;DHT22;3504;52.616;13.238;2022-07-21T21:07:20;21.82;77.59
6930;DHT22;3504;52.616;13.238;2022-07-21T21:12:22;21.78;77.53
6930;DHT22;3504;52.616;13.238;2022-07-21T21:17:23;21.74;78.56
6930;DHT22;3504;52.616;13.238;2022-07-21T21:22:25;21.72;77.18
6930;DHT22;3504;52.616;13.238;2022-07-21T21:27:26;21.71;77.31
6930;DHT22;3504;52.616;13.238;2022-07-21T21:32:27;21.72;78.57
6930;DHT22;3504;52.616;13.238;2022-07-21T21:37:28;21.66;78.85
6930;DHT22;3504;52.616;13.238;2022-07-21T21:42:30;21.64;79.16
6930;DHT22;3504;52.616;13.238;2022-07-21T21:47:30;21.61;78.69
6930;DHT22;3504;52.616;13.238;2022-07-21T21:52:32;21.62;78.68
6930;DHT22;3504;52.616;13.238;2022-07-21T21:57:33;21.62;79.50
6930;DHT22;3504;52.616;13.238;2022-07-21T22:02:35;21.61;79.67
6930;DHT22;3504;52.616;13.238;2022-07-21T22:07:36;21.58;79.18
6930;DHT22;3504;52.616;13.238;2022-07-21T22:12:40;21.53;79.20
6930;DHT22;3504;52.616;13.238;2022-07-21T22:17:41;21.51;78.92
6930;DHT22;3504;52.616;13.238;2022-07-21T22:22:43;21.51;78.84
6930;DHT22;3504;52.616;13.238;2022-07-21T22:27:44;21.50;79.56
6930;DHT22;3504;52.616;13.238;2022-07-21T22:32:45;21.45;79.46
6930;DHT22;3504;52.616;13.238;2022-07-21T22:37:46;21.44;79.97
6930;DHT22;3504;52.616;13.238;2022-07-21T22:42:48;21.41;79.64
6930;DHT22;3504;52.616;13.238;2022-07-21T22:47:48;21.44;79.46
6930;DHT22;3504;52.616;13.238;2022-07-21T22:52:52;21.44;79.81
6930;DHT22;3504;52.616;13.238;2022-07-21T22:57:52;21.40;79.95
6930;DHT22;3504;52.616;13.238;2022-07-21T23:02:57;21.37;79.68
6930;DHT22;3504;52.616;13.238;2022-07-21T23:07:58;21.37;80.05
6930;DHT22;3504;52.616;13.238;2022-07-21T23:13:00;21.35;79.92
6930;DHT22;3504;52.616;13.238;2022-07-21T23:18:00;21.28;80.52
6930;DHT22;3504;52.616;13.238;2022-07-21T23:23:02;21.24;80.78
6930;DHT22;3504;52.616;13.238;2022-07-21T23:28:02;21.20;80.70
6930;DHT22;3504;52.616;13.238;2022-07-21T23:33:04;21.17;81.18
6930;DHT22;3504;52.616;13.238;2022-07-21T23:38:05;21.15;80.56
6930;DHT22;3504;52.616;13.238;2022-07-21T23:43:06;21.14;80.42
6930;DHT22;3504;52.616;13.238;2022-07-21T23:48:07;21.14;80.20
6930;DHT22;3504;52.616;13.238;2022-07-21T23:53:08;21.14;79.58
6930;DHT22;3504;52.616;13.238;2022-07-21T23:58:09;21.08;80.34
